Time;durP1;ratioP1;P1;durP2;ratioP2;P2;SDS_P1;SDS_P2;PMS_P1;PMS_P2;Temp;Humidity;BMP_temperature;BMP_pressure;BME280_temperature;BME280_humidity;BME280_pressure;Samples;Min_cycle;Max_cycle;Signal;HPM_P1;HPM_P2
2023/06/03 00:01:21;;;;;;;7.80;3.27;;;;;;;16.87;67.57;98124.16;4200604;28;21652;-84
2023/06/03 00:03:24;;;;;;;5.97;3.40;;;;;;;16.88;69.94;98117.91;4199041;28;20819;-84
2023/06/03 00:05:28;;;;;;;3.90;3.03;;;;;;;16.91;67.61;98126.34;4198137;28;20625;-84
2023/06/03 00:07:31;;;;;;;6.37;3.80;;;;;;;16.92;69.32;98114.03;4199082;28;20627;-84
2023/06/03 00:09:34;;;;;;;6.43;3.40;;;;;;;16.91;69.67;98121.09;4202789;28;20778;-84
2023/06/03 00:11:39;;;;;;;5.50;3.00;;;;;;;16.90;69.24;98118.59;4203398;28;20632;-84
2023/06/03 00:13:42;;;;;;;7.40;3.73;;;;;;;16.90;69.52;98123.84;4203245;28;20664;-84
2023/06/03 00:15:45;;;;;;;7.27;3.53;;;;;;;16.90;69.62;98111.53;4196745;28;20645;-84
2023/06/03 00:17:48;;;;;;;7.17;4.00;;;;;;;16.91;69.82;98112.34;4209671;28;20627;-84
2023/06/03 00:19:51;;;;;;;5.27;3.60;;;;;;;16.91;68.49;98115.81;4200306;28;20634;-84
2023/06/03 00:21:55;;;;;;;6.73;3.37;;;;;;;16.91;69.04;98120.25;4204837;28;20714;-84
2023/06/03 00:23:58;;;;;;;5.60;3.60;;;;;;;16.90;70.20;98108.91;4200803;28;21011;-84
2023/06/03 00:26:01;;;;;;;5.77;3.30;;;;;;;16.88;68.38;98126.63;4204353;28;20632;-84
2023/06/03 00:28:05;;;;;;;5.77;3.70;;;;;;;16.85;68.83;98126.09;4212504;28;20630;-84
2023/06/03 00:30:09;;;;;;;7.23;3.50;;;;;;;16.83;70.00;98126.25;4200651;28;20694;-84
2023/06/03 00:32:12;;;;;;;4.10;3.30;;;;;;;16.83;68.69;98120.97;4211760;28;20626;-84
2023/06/03 00:34:15;;;;;;;5.90;3.47;;;;;;;16.82;69.68;98118.47;4204484;28;20626;-84
2023/06/03 00:36:19;;;;;;;4.87;3.50;;;;;;;16.83;70.67;98123.59;4207018;28;20621;-84
2023/06/03 00:38:22;;;;;;;7.37;3.40;;;;;;;16.81;68.43;98125.56;4210042;28;21086;-84
2023/06/03 00:40:25;;;;;;;5.17;3.70;;;;;;;16.76;68.45;98114.59;4200828;28;20725;-84
2023/06/03 00:42:28;;;;;;;6.03;4.40;;;;;;;16.75;68.89;98118.22;4200621;28;20766;-84
2023/06/03 00:44:32;;;;;;;6.43;4.13;;;;;;;16.71;68.15;98108.94;4208860;28;20624;-84
2023/06/03 00:46:36;;;;;;;6.57;3.30;;;;;;;16.68;70.34;98117.13;4192480;28;20732;-84
2023/06/03 00:48:39;;;;;;;5.57;3.80;;;;;;;16.67;70.56;98112.00;4201862;28;20636;-84
2023/06/03 00:50:42;;;;;;;6.03;3.70;;;;;;;16.65;71.18;98111.31;4199369;28;20723;-84
2023/06/03 00:52:46;;;;;;;4.90;3.63;;;;;;;16.63;71.27;98108.00;4184968;28;20641;-84
2023/06/03 00:54:51;;;;;;;5.00;3.10;;;;;;;16.61;70.65;98109.91;4207880;28;21015;-84
2023/06/03 00:56:54;;;;;;;6.47;3.40;;;;;;;16.54;69.58;98106.22;4200546;28;20626;-84
2023/06/03 00:58:58;;;;;;;5.57;3.80;;;;;;;16.51;69.43;98104.69;4190676;28;20629;-84
2023/06/03 01:01:08;;;;;;;8.13;3.80;;;;;;;16.52;69.98;98108.97;4198125;28;20706;-84
2023/06/03 01:03:14;;;;;;;4.13;3.00;;;;;;;16.50;70.04;98101.38;4201275;28;20654;-83
2023/06/03 01:05:17;;;;;;;7.33;3.20;;;;;;;16.42;71.00;98088.91;4200237;28;20616;-84
2023/06/03 01:07:31;;;;;;;6.00;3.47;;;;;;;16.37;71.03;98101.63;4202023;28;20726;-84
2023/06/03 01:09:45;;;;;;;5.00;3.60;;;;;;;16.35;69.67;98095.69;4202053;28;21172;-84
2023/06/03 01:11:54;;;;;;;6.80;4.10;;;;;;;16.35;69.08;98105.41;4209627;28;20635;-84
2023/06/03 01:14:02;;;;;;;11.10;4.40;;;;;;;16.37;69.67;98106.06;4200440;28;20700;-84
2023/06/03 01:16:09;;;;;;;7.63;3.50;;;;;;;16.37;70.96;98100.81;4193006;28;20634;-84
2023/06/03 01:18:14;;;;;;;5.73;3.63;;;;;;;16.38;70.99;98100.66;4199524;28;21187;-84
2023/06/03 01:20:18;;;;;;;5.10;3.37;;;;;;;16.40;70.41;98100.53;4205761;28;20628;-83
2023/06/03 01:22:26;;;;;;;6.00;3.77;;;;;;;16.39;71.59;98109.38;4208122;28;20643;-84
2023/06/03 01:24:30;;;;;;;5.33;3.30;;;;;;;16.30;69.53;98102.34;4201697;28;20612;-84
2023/06/03 01:26:34;;;;;;;7.10;3.73;;;;;;;16.27;69.97;98106.09;4194893;28;21263;-84
2023/06/03 01:28:38;;;;;;;4.70;3.30;;;;;;;16.25;71.00;98101.91;4201045;28;20623;-84
2023/06/03 01:30:41;;;;;;;8.00;3.83;;;;;;;16.30;71.23;98105.00;4198199;28;20709;-83
2023/06/03 01:32:48;;;;;;;7.20;3.33;;;;;;;16.30;70.47;98100.53;4201101;28;20626;-84
2023/06/03 01:34:51;;;;;;;7.60;3.80;;;;;;;16.32;70.22;98103.03;4194747;28;20685;-84
2023/06/03 01:36:55;;;;;;;5.90;3.60;;;;;;;16.34;69.76;98103.72;4189858;28;21247;-84
2023/06/03 01:38:58;;;;;;;6.33;3.60;;;;;;;16.29;69.60;98101.50;4193130;28;20705;-84
2023/06/03 01:41:03;;;;;;;5.73;3.43;;;;;;;16.32;69.82;98103.03;4193219;28;20621;-84
2023/06/03 01:43:08;;;;;;;6.10;4.30;;;;;;;16.31;70.30;98104.84;4198017;28;20660;-84
2023/06/03 01:45:11;;;;;;;6.47;3.73;;;;;;;16.30;70.44;98108.44;4209412;28;20728;-84
2023/06/03 01:47:15;;;;;;;8.17;3.80;;;;;;;16.31;69.70;98109.25;4208520;28;20616;-84
2023/06/03 01:49:18;;;;;;;8.80;3.43;;;;;;;16.27;70.60;98107.91;4210298;28;21278;-84
2023/06/03 01:51:25;;;;;;;6.50;3.70;;;;;;;16.28;71.70;98113.03;4198743;28;20740;-84
2023/06/03 01:53:28;;;;;;;6.80;3.80;;;;;;;16.32;69.34;98109.13;4186730;28;20620;-84
2023/06/03 01:55:32;;;;;;;5.27;3.00;;;;;;;16.35;69.52;98113.28;4203663;28;20693;-83
2023/06/03 01:57:37;;;;;;;7.10;3.30;;;;;;;16.32;70.62;98101.22;4199609;28;20628;-83
2023/06/03 01:59:40;;;;;;;4.60;3.60;;;;;;;16.28;71.48;98109.53;4201911;28;20633;-84
2023/06/03 02:01:43;;;;;;;8.80;3.57;;;;;;;16.26;71.18;98098.31;4215620;28;20632;-83
2023/06/03 02:03:47;;;;;;;6.43;4.13;;;;;;;16.23;70.73;98109.97;4215148;28;20779;-84
2023/06/03 02:05:50;;;;;;;9.60;4.00;;;;;;;16.25;69.95;98107.19;4202282;28;20653;-83
2023/06/03 02:07:53;;;;;;;8.63;3.67;;;;;;;16.22;69.70;98104.81;4198864;28;20658;-83
2023/06/03 02:09:56;;;;;;;6.13;3.67;;;;;;;16.24;70.82;98105.53;4197527;28;20642;-84
2023/06/03 02:12:01;;;;;;;5.43;3.70;;;;;;;16.23;70.24;98103.88;4198580;28;20634;-84
2023/06/03 02:14:05;;;;;;;6.97;3.90;;;;;;;16.24;70.06;98105.53;4201321;28;20625;-84
2023/06/03 02:16:10;;;;;;;6.00;3.53;;;;;;;16.22;69.81;98108.31;4187384;28;20757;-84
2023/06/03 02:18:14;;;;;;;8.47;3.97;;;;;;;16.20;71.46;98104.94;4199027;28;20707;-84
2023/06/03 02:20:17;;;;;;;6.27;3.77;;;;;;;16.17;70.98;98104.38;4202765;28;20652;-84
2023/06/03 02:22:21;;;;;;;6.30;3.50;;;;;;;16.16;70.29;98108.84;4198926;28;20657;-83
2023/06/03 02:24:24;;;;;;;6.50;3.50;;;;;;;16.14;71.34;98102.03;4190934;28;20649;-83
2023/06/03 02:26:28;;;;;;;5.70;3.77;;;;;;;16.07;71.14;98106.19;4203209;28;20629;-84
2023/06/03 02:28:31;;;;;;;5.50;3.90;;;;;;;16.01;71.68;98112.00;4190217;28;20633;-84
2023/06/03 02:30:36;;;;;;;7.40;3.60;;;;;;;15.98;70.38;98108.81;4201788;28;21107;-84
2023/06/03 02:32:39;;;;;;;5.90;3.20;;;;;;;15.97;70.88;98115.88;4192623;28;20697;-84
2023/06/03 02:34:43;;;;;;;7.17;4.60;;;;;;;15.94;70.79;98108.25;4198980;28;20635;-84
2023/06/03 02:36:47;;;;;;;8.77;5.40;;;;;;;15.91;71.00;98103.28;4199111;28;20629;-84
2023/06/03 02:38:50;;;;;;;6.93;3.70;;;;;;;15.87;70.49;98106.31;4185993;28;21018;-84
2023/06/03 02:40:53;;;;;;;4.50;3.33;;;;;;;15.85;71.63;98113.53;4197898;28;20628;-83
2023/06/03 02:42:56;;;;;;;8.27;4.00;;;;;;;15.82;71.68;98106.72;4203922;28;20628;-83
2023/06/03 02:44:59;;;;;;;5.50;3.60;;;;;;;15.80;70.76;98111.31;4206711;28;20656;-84
2023/06/03 02:47:04;;;;;;;7.93;4.10;;;;;;;15.78;70.49;98104.50;4195112;28;20628;-84
2023/06/03 02:49:08;;;;;;;7.97;4.37;;;;;;;15.78;70.85;98110.59;4204626;28;20716;-84
2023/06/03 02:51:11;;;;;;;5.47;3.60;;;;;;;15.75;71.79;98108.22;4189867;28;20648;-84
2023/06/03 02:53:15;;;;;;;11.07;4.30;;;;;;;15.74;72.54;98105.72;4203598;28;20727;-84
2023/06/03 02:55:18;;;;;;;5.30;4.03;;;;;;;15.73;73.06;98109.34;4195040;28;21296;-84
2023/06/03 02:57:22;;;;;;;5.93;4.00;;;;;;;15.72;72.29;98110.31;4218360;28;20628;-84
2023/06/03 02:59:25;;;;;;;5.60;3.53;;;;;;;15.71;73.18;98117.38;4202837;28;20634;-84
2023/06/03 03:01:29;;;;;;;5.57;2.93;;;;;;;15.75;72.86;98115.28;4202874;28;20638;-84
2023/06/03 03:03:36;;;;;;;5.83;4.30;;;;;;;15.74;72.10;98122.34;4201190;28;20639;-84
2023/06/03 03:05:40;;;;;;;6.13;3.80;;;;;;;15.70;71.35;98106.97;4195602;28;20657;-84
2023/06/03 03:07:43;;;;;;;7.03;3.63;;;;;;;15.70;72.75;98120.13;4192435;28;20715;-84
2023/06/03 03:09:47;;;;;;;8.40;3.77;;;;;;;15.69;73.34;98116.66;4195690;28;20647;-84
2023/06/03 03:11:50;;;;;;;4.87;3.60;;;;;;;15.69;71.71;98116.66;4201679;28;20632;-83
2023/06/03 03:13:54;;;;;;;9.80;3.77;;;;;;;15.70;72.62;98122.75;4209325;28;20720;-84
2023/06/03 03:16:00;;;;;;;4.50;3.27;;;;;;;15.71;72.32;98121.78;4217762;28;20629;-84
2023/06/03 03:18:05;;;;;;;5.77;3.93;;;;;;;15.68;72.95;98120.28;4202959;28;20624;-84
2023/06/03 03:20:11;;;;;;;7.00;4.80;;;;;;;15.66;72.52;98127.44;4201834;28;20631;-84
2023/06/03 03:22:14;;;;;;;6.53;3.87;;;;;;;15.61;72.31;98121.75;4204745;28;21232;-84
2023/06/03 03:24:19;;;;;;;5.37;4.10;;;;;;;15.61;73.49;98126.19;4206048;28;20694;-84
2023/06/03 03:26:24;;;;;;;3.97;3.40;;;;;;;15.59;74.05;98123.69;4201874;28;21173;-84
2023/06/03 03:28:28;;;;;;;4.90;4.00;;;;;;;15.54;72.69;98118.97;4206578;28;21251;-84
2023/06/03 03:30:37;;;;;;;5.50;3.40;;;;;;;15.53;72.12;98122.56;4186697;28;20744;-83
2023/06/03 03:32:43;;;;;;;7.00;3.67;;;;;;;15.57;72.83;98128.28;4192229;28;20693;-83
2023/06/03 03:34:55;;;;;;;6.00;4.07;;;;;;;15.59;72.41;98133.38;4209277;28;20613;-84
2023/06/03 03:37:00;;;;;;;6.00;3.73;;;;;;;15.61;73.82;98132.28;4202376;28;20624;-83
2023/06/03 03:39:04;;;;;;;6.60;4.27;;;;;;;15.63;71.40;98132.97;4176314;28;20631;-83
2023/06/03 03:41:17;;;;;;;6.07;4.20;;;;;;;15.62;73.21;98148.88;4194418;28;23817;-83
2023/06/03 03:43:20;;;;;;;4.87;3.60;;;;;;;15.55;72.49;98144.31;4200772;28;20629;-83
2023/06/03 03:45:27;;;;;;;4.63;3.30;;;;;;;15.54;73.25;98140.00;4193285;28;20689;-84
2023/06/03 03:47:30;;;;;;;6.40;3.60;;;;;;;15.56;72.97;98141.56;4210032;28;20993;-83
2023/06/03 03:49:36;;;;;;;5.17;3.87;;;;;;;15.55;72.92;98145.97;4203616;28;20637;-83
2023/06/03 03:51:44;;;;;;;6.50;4.03;;;;;;;15.59;73.20;98136.84;4204099;28;21137;-83
2023/06/03 03:53:49;;;;;;;7.03;4.20;;;;;;;15.57;71.87;98145.84;4187934;28;20639;-83
2023/06/03 03:55:58;;;;;;;8.40;4.80;;;;;;;15.61;71.98;98136.72;4190641;28;20625;-83
2023/06/03 03:58:12;;;;;;;6.43;4.13;;;;;;;15.65;74.08;98144.22;4192598;28;20616;-83
2023/06/03 04:00:16;;;;;;;5.20;3.80;;;;;;;15.69;73.66;98158.72;4202137;28;20661;-84
2023/06/03 04:02:20;;;;;;;9.70;4.00;;;;;;;15.69;73.37;98153.47;4183773;28;20637;-83
2023/06/03 04:04:37;;;;;;;5.17;4.20;;;;;;;15.74;71.73;98159.19;4177414;28;20676;-83
2023/06/03 04:06:40;;;;;;;5.70;4.30;;;;;;;15.74;71.42;98159.19;4199485;28;21592;-84
2023/06/03 04:08:46;;;;;;;8.13;4.50;;;;;;;15.78;73.36;98162.38;4201276;28;20695;-83
2023/06/03 04:10:50;;;;;;;5.20;3.63;;;;;;;15.83;72.70;98163.63;4202519;28;20652;-84
2023/06/03 04:12:53;;;;;;;7.53;4.60;;;;;;;15.84;73.27;98161.81;4202045;28;21005;-84
2023/06/03 04:14:57;;;;;;;6.13;3.97;;;;;;;15.86;71.43;98168.63;4194058;28;20636;-83
2023/06/03 04:17:02;;;;;;;5.07;3.63;;;;;;;15.87;73.17;98169.44;4179852;28;20689;-84
2023/06/03 04:19:14;;;;;;;5.97;3.97;;;;;;;15.90;72.35;98170.00;4198724;28;21376;-84
2023/06/03 04:21:19;;;;;;;7.43;3.93;;;;;;;15.96;72.61;98168.63;4191956;28;20633;-84
2023/06/03 04:23:22;;;;;;;5.67;3.83;;;;;;;15.97;74.19;98168.50;4201593;28;21083;-83
2023/06/03 04:25:26;;;;;;;5.07;3.53;;;;;;;16.00;72.57;98170.00;4189306;28;20664;-84
2023/06/03 04:27:32;;;;;;;6.53;4.07;;;;;;;16.05;72.45;98172.09;4187938;28;20641;-83
2023/06/03 04:29:37;;;;;;;5.70;3.80;;;;;;;16.03;71.74;98174.03;4165135;28;1124515;-84
2023/06/03 04:31:41;;;;;;;6.93;4.30;;;;;;;16.03;72.24;98166.16;4203056;28;20763;-83
2023/06/03 04:33:44;;;;;;;5.47;4.20;;;;;;;16.06;71.47;98175.59;4196552;28;20644;-83
2023/06/03 04:35:48;;;;;;;5.80;3.70;;;;;;;16.06;70.81;98167.69;4189026;28;20629;-83
2023/06/03 04:37:51;;;;;;;8.80;4.27;;;;;;;16.10;73.23;98175.19;4184797;28;20637;-83
2023/06/03 04:39:58;;;;;;;5.87;3.60;;;;;;;15.95;70.75;98170.44;4187805;28;21070;-84
2023/06/03 04:42:02;;;;;;;7.77;3.80;;;;;;;16.03;73.64;98173.22;4185406;28;20741;-84
2023/06/03 04:44:08;;;;;;;6.07;4.20;;;;;;;16.09;72.80;98175.31;4169071;28;20780;-84
2023/06/03 04:46:12;;;;;;;5.43;4.30;;;;;;;16.15;72.01;98182.66;4194181;28;20658;-84
2023/06/03 04:48:16;;;;;;;6.67;4.60;;;;;;;16.20;72.75;98178.63;4172682;28;21250;-83
2023/06/03 04:50:20;;;;;;;6.43;4.20;;;;;;;16.26;73.58;98183.38;4194691;28;20643;-83
2023/06/03 04:52:25;;;;;;;7.07;5.07;;;;;;;16.33;72.51;98179.25;4197264;28;20633;-83
2023/06/03 04:54:29;;;;;;;5.30;4.30;;;;;;;16.39;71.60;98183.09;4169160;28;21056;-83
2023/06/03 04:56:32;;;;;;;6.80;4.53;;;;;;;16.39;72.96;98177.84;4197599;28;20662;-84
2023/06/03 04:58:40;;;;;;;11.67;4.70;;;;;;;16.44;73.44;98178.28;4200144;28;20697;-83
2023/06/03 05:00:49;;;;;;;7.20;4.60;;;;;;;16.50;73.17;98183.00;4195237;28;21011;-83
2023/06/03 05:02:56;;;;;;;5.90;3.87;;;;;;;16.53;71.39;98188.81;4182431;28;20697;-83
2023/06/03 05:05:03;;;;;;;4.63;3.87;;;;;;;16.57;72.13;98177.84;4203751;28;20651;-84
2023/06/03 05:07:07;;;;;;;9.40;5.20;;;;;;;16.59;70.12;98182.97;4178900;28;21365;-83
2023/06/03 05:09:10;;;;;;;5.77;4.03;;;;;;;16.64;72.13;98178.13;4194028;28;20728;-83
2023/06/03 05:11:16;;;;;;;7.27;4.23;;;;;;;16.53;70.18;98178.28;4187395;28;20709;-83
2023/06/03 05:13:21;;;;;;;6.30;4.40;;;;;;;16.56;71.96;98185.88;4189563;28;20630;-84
2023/06/03 05:15:25;;;;;;;6.43;4.40;;;;;;;16.60;70.13;98179.38;4182943;28;20642;-84
2023/06/03 05:17:32;;;;;;;6.70;3.77;;;;;;;16.63;70.67;98187.84;4175604;28;20651;-83
2023/06/03 05:19:35;;;;;;;6.37;4.90;;;;;;;16.63;70.22;98182.56;4181660;28;20640;-84
2023/06/03 05:21:39;;;;;;;6.53;4.53;;;;;;;16.70;70.50;98182.81;4170004;28;20743;-84
2023/06/03 05:23:45;;;;;;;8.23;5.13;;;;;;;16.77;72.27;98184.75;4184130;28;20676;-84
2023/06/03 05:25:48;;;;;;;4.63;4.03;;;;;;;16.87;70.04;98190.00;4166602;28;21211;-84
2023/06/03 05:27:52;;;;;;;9.63;4.80;;;;;;;16.95;69.52;98188.34;4190488;28;20690;-83
2023/06/03 05:30:09;;;;;;;5.57;3.93;;;;;;;16.82;70.78;98182.53;4161099;28;20770;-84
2023/06/03 05:32:13;;;;;;;8.17;4.07;;;;;;;16.89;69.99;98181.00;4161794;28;20709;-84
2023/06/03 05:34:17;;;;;;;6.30;4.67;;;;;;;16.99;70.16;98184.47;4197004;28;20641;-84
2023/06/03 05:36:21;;;;;;;6.80;4.40;;;;;;;17.06;70.95;98185.53;4195295;28;20626;-84
2023/06/03 05:38:24;;;;;;;5.43;3.93;;;;;;;17.17;69.96;98185.38;4187402;28;20660;-84
2023/06/03 05:40:28;;;;;;;6.13;4.57;;;;;;;17.33;69.03;98180.38;4186709;28;20648;-84
2023/06/03 05:42:31;;;;;;;9.30;4.87;;;;;;;17.61;69.32;98186.38;4195972;28;20638;-84
2023/06/03 05:44:34;;;;;;;5.27;3.93;;;;;;;17.92;68.87;98194.81;4198261;28;20638;-84
2023/06/03 05:46:39;;;;;;;5.67;4.00;;;;;;;18.23;68.69;98199.69;4203697;28;20726;-84
2023/06/03 05:48:43;;;;;;;7.50;4.57;;;;;;;18.51;68.45;98195.00;4181653;28;20631;-84
2023/06/03 05:50:50;;;;;;;5.43;3.70;;;;;;;18.91;67.78;98209.44;4202475;28;20732;-83
2023/06/03 05:52:56;;;;;;;5.30;3.80;;;;;;;19.17;67.07;98206.81;4197728;28;20694;-83
2023/06/03 05:55:00;;;;;;;6.53;4.00;;;;;;;19.45;64.62;98211.81;4199926;28;20628;-84
2023/06/03 05:57:03;;;;;;;7.40;4.50;;;;;;;19.74;65.65;98201.72;4200211;28;20634;-83
2023/06/03 05:59:07;;;;;;;7.93;3.93;;;;;;;20.06;65.58;98210.66;4199722;28;21075;-84
2023/06/03 06:01:14;;;;;;;5.87;4.27;;;;;;;20.33;64.17;98212.06;4187995;28;21266;-84
2023/06/03 06:03:19;;;;;;;6.63;4.80;;;;;;;20.60;62.19;98216.28;4203178;28;20660;-83
2023/06/03 06:05:22;;;;;;;6.73;4.67;;;;;;;20.66;62.22;98213.78;4199659;28;20659;-83
2023/06/03 06:07:27;;;;;;;5.50;3.93;;;;;;;20.89;61.76;98212.19;4190238;28;20647;-83
2023/06/03 06:09:30;;;;;;;6.43;4.40;;;;;;;20.98;61.24;98214.66;4185217;28;20643;-84
2023/06/03 06:11:33;;;;;;;7.00;4.23;;;;;;;21.13;60.71;98217.50;4200370;28;20619;-84
2023/06/03 06:13:36;;;;;;;7.60;4.07;;;;;;;21.11;60.69;98215.00;4186204;28;20630;-84
2023/06/03 06:15:40;;;;;;;5.20;4.10;;;;;;;21.22;61.54;98211.19;4202754;28;20634;-83
2023/06/03 06:17:45;;;;;;;6.80;4.30;;;;;;;21.41;60.74;98212.47;4195658;28;20687;-83
2023/06/03 06:19:49;;;;;;;6.93;4.00;;;;;;;21.59;61.33;98210.50;4199764;28;20641;-84
2023/06/03 06:21:52;;;;;;;6.10;3.60;;;;;;;21.78;59.70;98204.78;4190079;28;21211;-84
2023/06/03 06:23:56;;;;;;;6.30;4.23;;;;;;;21.89;60.00;98207.91;4201489;28;20638;-83
2023/06/03 06:26:00;;;;;;;5.60;4.13;;;;;;;21.92;59.31;98209.38;4198485;28;20901;-83
2023/06/03 06:28:06;;;;;;;5.90;4.40;;;;;;;22.11;59.60;98211.63;4198259;28;20728;-84
2023/06/03 06:30:10;;;;;;;6.20;4.47;;;;;;;22.24;58.97;98204.78;4193949;28;20677;-83
2023/06/03 06:32:18;;;;;;;6.07;4.10;;;;;;;22.24;58.17;98205.59;4195599;28;20663;-83
2023/06/03 06:34:21;;;;;;;5.17;3.97;;;;;;;22.31;59.01;98209.25;4195727;28;20711;-84
2023/06/03 06:36:30;;;;;;;5.67;4.20;;;;;;;22.45;59.27;98215.66;4198749;28;20627;-83
2023/06/03 06:38:37;;;;;;;5.50;3.90;;;;;;;22.45;59.36;98219.13;4204543;28;20632;-84
2023/06/03 06:40:43;;;;;;;5.20;4.30;;;;;;;22.67;58.44;98217.50;4195281;28;20703;-83
2023/06/03 06:42:49;;;;;;;6.77;4.07;;;;;;;22.79;58.25;98214.25;4195999;28;20631;-83
2023/06/03 06:45:15;;;;;;;4.97;3.80;;;;;;;22.96;58.80;98216.66;4200865;28;20614;-84
2023/06/03 06:47:22;;;;;;;6.00;4.20;;;;;;;22.98;57.00;98217.28;4179873;28;20830;-84
2023/06/03 06:49:28;;;;;;;8.23;4.60;;;;;;;23.00;57.98;98217.09;4195107;28;21062;-83
2023/06/03 06:51:31;;;;;;;8.17;4.57;;;;;;;23.22;59.47;98215.25;4204428;28;20672;-83
2023/06/03 06:53:35;;;;;;;5.87;4.20;;;;;;;23.52;58.06;98218.81;4199308;28;20629;-83
2023/06/03 06:55:48;;;;;;;5.50;4.27;;;;;;;23.75;58.30;98225.75;4184252;28;20641;-83
2023/06/03 06:57:55;;;;;;;5.27;3.97;;;;;;;23.87;57.17;98214.44;4187525;28;20638;-84
2023/06/03 06:59:58;;;;;;;4.57;3.77;;;;;;;23.91;57.01;98217.59;4202372;28;21531;-84
2023/06/03 07:02:02;;;;;;;9.03;4.47;;;;;;;23.90;56.17;98213.25;4180732;28;20645;-84
2023/06/03 07:04:06;;;;;;;7.23;4.77;;;;;;;23.95;56.65;98210.84;4187349;28;20673;-83
2023/06/03 07:06:10;;;;;;;5.10;4.00;;;;;;;23.73;57.16;98209.13;4192256;28;20822;-84
2023/06/03 07:08:14;;;;;;;7.00;4.00;;;;;;;23.82;55.74;98206.19;4194721;28;20693;-83
2023/06/03 07:10:20;;;;;;;5.03;3.97;;;;;;;23.80;55.76;98202.88;4199828;28;21076;-84
2023/06/03 07:12:25;;;;;;;8.03;5.30;;;;;;;23.80;56.44;98202.88;4199083;28;20642;-83
2023/06/03 07:14:30;;;;;;;6.10;4.07;;;;;;;24.00;57.66;98205.81;4194915;28;20616;-83
2023/06/03 07:16:33;;;;;;;6.40;5.20;;;;;;;24.26;57.63;98210.44;4198128;28;20637;-84
2023/06/03 07:18:37;;;;;;;4.93;4.27;;;;;;;24.24;56.00;98203.66;4196389;28;20633;-83
2023/06/03 07:20:42;;;;;;;5.93;4.20;;;;;;;24.41;55.60;98203.28;4203045;28;20636;-84
2023/06/03 07:22:46;;;;;;;8.30;5.57;;;;;;;24.57;55.76;98197.72;4190713;28;20639;-83
2023/06/03 07:24:49;;;;;;;5.40;4.10;;;;;;;24.83;55.37;98208.69;4204610;28;20615;-84
2023/06/03 07:26:52;;;;;;;5.33;4.10;;;;;;;24.66;54.83;98201.94;4198569;28;20760;-84
2023/06/03 07:28:58;;;;;;;5.07;4.47;;;;;;;24.56;56.16;98205.91;4195334;28;20638;-82
2023/06/03 07:31:03;;;;;;;5.87;4.50;;;;;;;24.55;55.14;98210.44;4192692;28;21252;-85
2023/06/03 07:33:12;;;;;;;9.43;4.40;;;;;;;24.55;55.88;98197.09;4199317;28;21011;-83
2023/06/03 07:35:19;;;;;;;6.70;4.70;;;;;;;24.73;56.10;98202.81;4192272;28;21280;-84
2023/06/03 07:37:23;;;;;;;6.77;3.93;;;;;;;24.83;57.39;98203.34;4185008;28;21391;-84
2023/06/03 07:39:26;;;;;;;7.27;4.77;;;;;;;25.06;55.06;98215.50;4202477;28;20686;-84
2023/06/03 07:41:41;;;;;;;6.17;5.00;;;;;;;25.13;54.93;98217.22;4198671;28;20680;-84
2023/06/03 07:43:52;;;;;;;5.07;4.03;;;;;;;24.93;55.34;98214.53;4197741;28;20642;-84
2023/06/03 07:45:56;;;;;;;4.90;4.30;;;;;;;24.97;56.29;98200.59;4196552;28;20619;-84
2023/06/03 07:48:01;;;;;;;4.83;4.20;;;;;;;25.09;54.73;98208.94;4194390;28;20744;-84
2023/06/03 07:50:05;;;;;;;6.80;4.87;;;;;;;24.90;57.49;98201.56;4197261;28;20635;-84
2023/06/03 07:52:13;;;;;;;5.23;4.40;;;;;;;24.64;55.65;98198.59;4201959;28;20635;-84
2023/06/03 07:54:17;;;;;;;7.67;4.97;;;;;;;24.77;55.50;98201.44;4190302;28;20637;-84
2023/06/03 07:56:21;;;;;;;5.90;4.90;;;;;;;24.98;55.43;98207.59;4185492;28;20963;-84
2023/06/03 07:58:25;;;;;;;5.53;4.50;;;;;;;25.24;55.80;98216.72;4203857;28;20634;-83
2023/06/03 08:00:29;;;;;;;5.13;4.00;;;;;;;25.30;55.33;98210.59;4196314;28;20642;-84
2023/06/03 08:02:37;;;;;;;7.70;4.90;;;;;;;25.39;55.00;98213.94;4198660;28;20625;-83
2023/06/03 08:04:40;;;;;;;6.00;4.03;;;;;;;25.43;57.17;98216.03;4205330;28;20628;-83
2023/06/03 08:06:46;;;;;;;5.83;4.90;;;;;;;25.47;54.51;98209.28;4200551;28;21044;-84
2023/06/03 08:08:49;;;;;;;7.07;4.70;;;;;;;25.52;55.13;98220.22;4179844;28;21349;-84
2023/06/03 08:10:52;;;;;;;5.70;4.53;;;;;;;25.57;55.33;98212.44;4189892;28;20699;-83
2023/06/03 08:12:56;;;;;;;6.50;4.37;;;;;;;25.64;54.87;98205.31;4200946;28;21288;-83
2023/06/03 08:14:59;;;;;;;6.50;4.80;;;;;;;25.78;57.14;98207.88;4189864;28;21662;-84
2023/06/03 08:17:04;;;;;;;6.50;4.60;;;;;;;26.06;56.81;98215.88;4184079;28;21042;-83
2023/06/03 08:19:11;;;;;;;5.17;4.67;;;;;;;26.23;55.38;98218.81;4195736;28;20646;-83
2023/06/03 08:21:15;;;;;;;5.97;4.33;;;;;;;26.36;54.78;98218.13;4183918;28;20643;-84
2023/06/03 08:23:18;;;;;;;5.07;4.50;;;;;;;26.35;53.44;98217.25;4184787;28;20693;-84
2023/06/03 08:25:22;;;;;;;6.17;4.77;;;;;;;26.35;53.28;98211.09;4192454;28;20626;-85
2023/06/03 08:27:25;;;;;;;6.97;5.00;;;;;;;26.29;53.51;98212.72;4194503;28;20717;-84
2023/06/03 08:29:28;;;;;;;5.97;4.30;;;;;;;26.04;53.71;98210.72;4201452;28;20639;-84
2023/06/03 08:31:32;;;;;;;4.90;4.40;;;;;;;26.18;53.40;98209.75;4202121;28;21091;-83
2023/06/03 08:33:36;;;;;;;8.67;5.20;;;;;;;26.25;54.33;98208.78;4203349;28;20624;-85
2023/06/03 08:35:40;;;;;;;5.57;4.47;;;;;;;26.42;54.45;98212.78;4196420;28;20650;-84
2023/06/03 08:37:44;;;;;;;5.50;4.17;;;;;;;26.38;53.40;98211.50;4175722;28;20641;-86
2023/06/03 08:39:47;;;;;;;10.17;5.10;;;;;;;26.20;53.84;98213.88;4194337;28;20668;-83
2023/06/03 08:41:54;;;;;;;7.40;4.90;;;;;;;26.08;53.90;98203.94;4184623;28;20715;-84
2023/06/03 08:44:03;;;;;;;5.23;4.20;;;;;;;25.92;53.95;98211.44;4195343;28;21268;-82
2023/06/03 08:46:13;;;;;;;10.83;5.03;;;;;;;26.09;54.36;98202.94;4193186;28;20673;-82
2023/06/03 08:48:25;;;;;;;5.53;4.60;;;;;;;26.18;56.23;98215.94;4197637;28;20678;-83
2023/06/03 08:50:28;;;;;;;5.47;4.70;;;;;;;26.17;54.07;98202.75;4194801;28;20643;-83
2023/06/03 08:52:35;;;;;;;5.73;4.67;;;;;;;26.01;54.13;98205.78;4196659;28;20662;-84
2023/06/03 08:54:40;;;;;;;7.50;5.17;;;;;;;25.86;55.42;98196.19;4190679;28;20639;-85
2023/06/03 08:56:47;;;;;;;8.83;4.73;;;;;;;25.77;54.67;98202.72;4182089;28;20643;-84
2023/06/03 08:58:56;;;;;;;6.80;5.10;;;;;;;25.73;55.00;98209.50;4190902;28;21072;-84
2023/06/03 09:01:03;;;;;;;7.50;4.70;;;;;;;25.61;55.04;98198.47;4191827;28;20631;-86
2023/06/03 09:03:07;;;;;;;6.70;4.80;;;;;;;25.60;55.25;98196.00;4202858;28;20996;-87
2023/06/03 09:05:11;;;;;;;6.50;4.60;;;;;;;25.58;55.47;98190.03;4194272;28;20684;-87
2023/06/03 09:07:15;;;;;;;5.87;5.10;;;;;;;25.57;56.05;98198.25;4191299;28;20656;-87
2023/06/03 09:09:20;;;;;;;7.97;6.13;;;;;;;25.68;55.15;98190.56;4199274;28;20654;-87
2023/06/03 09:11:25;;;;;;;7.27;5.10;;;;;;;25.91;55.75;98202.63;4198517;28;21043;-87
2023/06/03 09:13:30;;;;;;;7.80;5.17;;;;;;;25.94;54.94;98193.38;4200349;28;20646;-87
2023/06/03 09:15:33;;;;;;;5.60;4.30;;;;;;;26.09;55.54;98206.41;4195668;28;20623;-88
2023/06/03 09:17:37;;;;;;;7.37;5.33;;;;;;;25.97;54.97;98201.81;4195115;28;20682;-86
2023/06/03 09:19:40;;;;;;;7.40;5.67;;;;;;;25.92;55.33;98192.72;4204758;28;20642;-88
2023/06/03 09:21:43;;;;;;;6.20;5.53;;;;;;;25.97;55.11;98191.13;4193807;28;21013;-87
2023/06/03 09:23:47;;;;;;;7.43;4.97;;;;;;;25.66;55.28;98179.22;4188530;28;20643;-87
2023/06/03 09:25:51;;;;;;;9.37;5.17;;;;;;;25.75;56.29;98191.41;4186809;28;20613;-87
2023/06/03 09:27:55;;;;;;;5.63;4.90;;;;;;;25.82;56.04;98192.28;4198719;28;20647;-87
2023/06/03 09:29:58;;;;;;;6.30;4.90;;;;;;;26.06;55.52;98199.81;4194699;28;20644;-86
2023/06/03 09:32:01;;;;;;;5.87;4.97;;;;;;;25.89;55.65;98195.81;4192384;28;20642;-86
2023/06/03 09:34:05;;;;;;;6.90;6.20;;;;;;;25.95;55.97;98197.69;4196316;28;21459;-86
2023/06/03 09:36:10;;;;;;;6.50;5.00;;;;;;;26.02;55.99;98198.56;4191656;28;20954;-87
2023/06/03 09:38:13;;;;;;;6.10;4.93;;;;;;;25.96;55.14;98188.66;4188353;28;21269;-86
2023/06/03 09:40:25;;;;;;;9.97;5.57;;;;;;;25.88;55.79;98189.63;4198405;28;20635;-86
2023/06/03 09:42:42;;;;;;;7.60;4.80;;;;;;;25.80;56.12;98188.97;4198231;28;20619;-86
2023/06/03 09:44:49;;;;;;;8.93;5.40;;;;;;;25.92;56.51;98192.72;4199025;28;20646;-87
2023/06/03 09:46:52;;;;;;;5.53;4.93;;;;;;;26.02;55.71;98183.34;4197443;28;20633;-87
2023/06/03 09:48:55;;;;;;;6.67;5.40;;;;;;;26.14;55.18;98187.09;4196832;28;20735;-87